Etusivu
METAR-TAF:

METAR-TAF

Lentoasemat :

Recife, Pernambuco, Brasilia

Leveyspiiri: 08-08S, Pituuspiiri: 034-55W, korkeus merenpinnasta: 19 m

Tämänhetkinen sää

Tämä raportti tehtiin 13 minuuttia sitten, kello 05.00 UTC
Tuuli 3 kn lännestä
Lämpötila 25°C
Kosteus 89%
Ilmanpaine 1011 hPa
Näkyvyys 10 km tai enemmän
Hajanaisia pilviä 2200 ft:n korkeudessa

METAR: SBRF 270500Z 26003KT 9999 SCT022 25/23 Q1011

Aika: 02:13 (05:13 UTC)

Sääennuste

Tämä raportti tehtiin 7 tuntia ja 13 minuuttia sitten, kello 22.00 UTC
Ennuste voimassa 27. päivästä klo 00 UTC - 27. päivään klo 24 UTC
Tuuli 8 kn etelästä/kaakosta
Näkyvyys: 8000 m
Hajanaisia pilviä 2000 ft:n korkeudessa
Todennäköisyys 30% :
Ajoittain
27. päivästä klo 08 UTC - 27. päivään klo 11 UTC
Näkyvyys: 6000 m
Hajonneita pilviä 1700 ft:n korkeudessa
vesikuuroja

TAF: SBRF 262200Z 2700/2724 15008KT 8000 SCT020 TN26/2708Z TX30/2715Z PROB30 TEMPO 2708/2711 6000 SHRA BKN017 RMK PCH

Säähavainnot ja -ennusteet yli 4000 lentoasemalta (METAR- ja TAF-raportit).

Käytössä olevat sääasemat on merkitty karttaan keltaisilla ja punaisilla pisteillä.

Aseta hiiri pisteen päälle nähdäksesi sääaseman nimen.

Klikkaa sitten nähdäksesi säähavainnot ja -ennusteet.

Kartan vaihtaminen: klikkaa mustalla rastilla varustettuja vihreitä pisteitä, niin voit zoomata sisään; viivalla varustettua vihreää pistettä, niin voit zoomata ulos tai vihreitä nuolia, niin pääset viereisille kartoille.


METAR-TAF: